createdAt,value
2019-02-15T00:01:21.023Z,77.00
2019-02-15T00:03:50.618Z,67.60
2019-02-15T00:06:20.580Z,77.47
2019-02-15T00:08:50.362Z,74.00
2019-02-15T00:11:20.113Z,72.67
2019-02-15T00:13:49.797Z,74.53
2019-02-15T00:16:19.790Z,89.10
2019-02-15T00:19:08.407Z,73.60
2019-02-15T00:21:46.817Z,96.10
2019-02-15T00:24:16.466Z,74.27
2019-02-15T00:26:46.208Z,71.73
2019-02-15T00:29:16.352Z,74.30
2019-02-15T00:31:45.980Z,76.13
2019-02-15T00:34:15.755Z,75.37
2019-02-15T00:36:46.240Z,91.33
2019-02-15T00:39:16.095Z,72.30
2019-02-15T00:41:45.859Z,82.27
2019-02-15T00:44:15.752Z,68.27
2019-02-15T00:46:59.171Z,68.00
2019-02-15T00:49:35.197Z,101.87
2019-02-15T00:52:23.997Z,74.67
2019-02-15T00:55:01.511Z,74.80
2019-02-15T00:57:53.074Z,67.77
2019-02-15T01:00:59.999Z,58.90
2019-02-15T01:03:54.766Z,82.40
2019-02-15T01:06:39.988Z,83.43
2019-02-15T01:09:29.045Z,76.20
2019-02-15T01:12:17.947Z,65.17
2019-02-15T01:14:47.690Z,60.10
2019-02-15T01:17:17.455Z,70.13
2019-02-15T01:19:47.456Z,61.43
2019-02-15T01:22:17.494Z,78.13
2019-02-15T01:24:47.282Z,74.90
2019-02-15T01:27:47.858Z,71.37
2019-02-15T01:30:34.834Z,64.47
2019-02-15T01:33:32.567Z,58.90
2019-02-15T01:36:10.436Z,63.47
2019-02-15T01:39:05.768Z,56.20
2019-02-15T01:41:53.695Z,57.43
2019-02-15T01:44:48.530Z,50.07
2019-02-15T01:47:22.348Z,70.50
2019-02-15T01:49:52.365Z,53.50
2019-02-15T01:52:21.989Z,59.67
2019-02-15T01:54:51.603Z,64.13
2019-02-15T01:57:21.653Z,45.63
2019-02-15T01:59:51.424Z,44.10
2019-02-15T02:02:23.173Z,46.40
2019-02-15T02:04:53.042Z,66.77
2019-02-15T02:07:22.907Z,48.67
2019-02-15T02:09:53.185Z,57.47
2019-02-15T02:12:23.111Z,53.23
2019-02-15T02:14:52.965Z,48.90
2019-02-15T02:17:23.007Z,55.97
2019-02-15T02:19:54.704Z,52.77
2019-02-15T02:22:24.632Z,65.30
2019-02-15T02:24:54.832Z,64.37
2019-02-15T02:27:25.257Z,57.50
2019-02-15T02:29:55.346Z,56.70
2019-02-15T02:32:25.221Z,41.97
2019-02-15T02:34:56.265Z,78.37
2019-02-15T02:37:26.234Z,52.23
2019-02-15T02:39:56.448Z,45.43
2019-02-15T02:42:26.545Z,47.23
2019-02-15T02:44:56.472Z,52.00
2019-02-15T02:47:26.316Z,55.63
2019-02-15T02:49:56.242Z,90.23
2019-02-15T02:52:26.030Z,79.53
2019-02-15T02:54:56.193Z,65.60
2019-02-15T02:57:26.064Z,61.10
2019-02-15T02:59:56.015Z,55.40
2019-02-15T03:02:26.163Z,61.47
2019-02-15T03:04:56.491Z,58.17
2019-02-15T03:07:26.512Z,56.13
2019-02-15T03:09:56.599Z,66.27
2019-02-15T03:12:26.727Z,60.17
2019-02-15T03:14:56.667Z,68.10
2019-02-15T03:17:26.468Z,58.40
2019-02-15T03:19:56.458Z,62.17
2019-02-15T03:22:26.392Z,54.00
2019-02-15T03:24:56.391Z,83.27
2019-02-15T03:27:26.622Z,76.10
2019-02-15T03:29:56.540Z,71.50
2019-02-15T03:32:26.566Z,67.77
2019-02-15T03:34:56.592Z,54.10
2019-02-15T03:37:51.282Z,51.43
2019-02-15T03:40:24.626Z,63.73
2019-02-15T03:42:54.323Z,61.40
2019-02-15T03:45:24.324Z,60.13
2019-02-15T03:47:54.409Z,58.37
2019-02-15T03:50:24.290Z,57.70
2019-02-15T03:52:54.265Z,64.20
2019-02-15T03:55:24.491Z,48.83
2019-02-15T03:57:54.320Z,50.80
2019-02-15T04:00:24.302Z,59.57
2019-02-15T04:02:54.377Z,53.77
2019-02-15T04:05:24.487Z,48.13
2019-02-15T04:07:54.330Z,63.20
2019-02-15T04:10:24.579Z,47.03
2019-02-15T04:12:54.316Z,55.87
2019-02-15T04:15:24.064Z,50.17
2019-02-15T04:17:53.849Z,47.83
2019-02-15T04:20:23.695Z,51.27
2019-02-15T04:22:53.518Z,62.53
2019-02-15T04:25:23.664Z,56.73
2019-02-15T04:27:53.469Z,41.60
2019-02-15T04:30:23.112Z,44.17
2019-02-15T04:32:53.029Z,54.97
2019-02-15T04:35:23.129Z,44.40
2019-02-15T04:37:52.951Z,52.90
2019-02-15T04:40:22.920Z,46.77
2019-02-15T04:42:53.007Z,53.80
2019-02-15T04:45:22.818Z,54.73
2019-02-15T04:47:52.775Z,47.57
2019-02-15T04:50:22.768Z,49.17
2019-02-15T04:52:52.784Z,67.80
2019-02-15T04:55:22.847Z,44.70
2019-02-15T04:57:52.966Z,44.67
2019-02-15T05:00:22.932Z,40.70
2019-02-15T05:02:53.059Z,44.53
2019-02-15T05:05:23.126Z,44.63
2019-02-15T05:07:52.846Z,36.57
2019-02-15T05:10:22.884Z,35.13
2019-02-15T05:12:52.799Z,36.23
2019-02-15T05:15:22.470Z,39.10
2019-02-15T05:17:52.318Z,40.57
2019-02-15T05:20:21.998Z,34.30
2019-02-15T05:22:51.668Z,37.73
2019-02-15T05:25:21.594Z,33.27
2019-02-15T05:27:51.140Z,38.93
2019-02-15T05:30:20.997Z,36.97
2019-02-15T05:32:50.879Z,43.97
2019-02-15T05:35:20.589Z,42.17
2019-02-15T05:37:50.309Z,33.73
2019-02-15T05:40:20.227Z,42.00
2019-02-15T05:42:49.907Z,41.00
2019-02-15T05:45:19.673Z,40.73
2019-02-15T05:47:49.487Z,47.23
2019-02-15T05:50:19.134Z,43.23
2019-02-15T05:52:48.807Z,35.87
2019-02-15T05:55:18.846Z,38.03
2019-02-15T05:57:48.560Z,39.60
2019-02-15T06:00:18.253Z,35.83
2019-02-15T06:02:48.344Z,32.03
2019-02-15T06:05:18.127Z,31.43
2019-02-15T06:07:48.037Z,29.00
2019-02-15T06:10:17.852Z,28.60
2019-02-15T06:12:47.526Z,35.33
2019-02-15T06:15:17.213Z,34.27
2019-02-15T06:17:47.278Z,32.10
2019-02-15T06:20:17.022Z,33.63
2019-02-15T06:22:46.702Z,27.53
2019-02-15T06:25:16.365Z,26.57
2019-02-15T06:27:45.954Z,33.57
2019-02-15T06:30:15.570Z,30.10
2019-02-15T06:32:45.327Z,33.27
2019-02-15T06:35:15.214Z,31.97
2019-02-15T06:37:44.908Z,32.20
2019-02-15T06:40:14.765Z,31.90
2019-02-15T06:42:44.262Z,38.07
2019-02-15T06:45:13.930Z,32.53
2019-02-15T06:47:43.675Z,34.60
2019-02-15T06:50:13.661Z,49.10
2019-02-15T06:52:43.337Z,34.80
2019-02-15T06:55:13.160Z,32.13
2019-02-15T06:57:42.850Z,31.87
2019-02-15T07:00:47.057Z,33.87
2019-02-15T07:03:47.552Z,36.50
2019-02-15T07:06:17.395Z,36.73
2019-02-15T07:08:47.035Z,36.50
2019-02-15T07:11:16.685Z,36.20
2019-02-15T07:13:46.530Z,36.80
2019-02-15T07:16:16.161Z,39.53
2019-02-15T07:18:45.751Z,39.77
2019-02-15T07:21:15.768Z,35.77
2019-02-15T07:23:45.372Z,44.37
2019-02-15T07:26:15.072Z,34.57
2019-02-15T07:28:44.961Z,39.17
2019-02-15T07:31:14.646Z,38.10
2019-02-15T07:33:44.305Z,35.57
2019-02-15T07:36:14.254Z,34.40
2019-02-15T07:38:44.136Z,31.40
2019-02-15T07:41:13.706Z,37.90
2019-02-15T07:43:43.579Z,34.70
2019-02-15T07:46:13.281Z,41.50
2019-02-15T07:48:43.064Z,38.57
2019-02-15T07:51:12.990Z,28.90
2019-02-15T07:53:42.811Z,33.13
2019-02-15T07:56:12.397Z,33.13
2019-02-15T07:58:42.281Z,36.07
2019-02-15T08:01:11.990Z,32.67
2019-02-15T08:03:41.608Z,32.63
2019-02-15T08:06:11.312Z,51.50
2019-02-15T08:08:40.991Z,38.93
2019-02-15T08:11:10.783Z,42.77
2019-02-15T08:13:40.698Z,39.30
2019-02-15T08:16:10.400Z,31.63
2019-02-15T08:18:39.962Z,31.03
2019-02-15T08:21:09.735Z,30.70
2019-02-15T08:23:39.404Z,28.80
2019-02-15T08:26:09.274Z,31.23
2019-02-15T08:28:39.120Z,33.70
2019-02-15T08:31:08.856Z,32.27
2019-02-15T08:33:38.503Z,38.63
2019-02-15T08:36:08.408Z,31.63
2019-02-15T08:38:37.998Z,31.50
2019-02-15T08:41:07.675Z,36.27
2019-02-15T08:43:37.622Z,34.20
2019-02-15T08:46:07.332Z,40.57
2019-02-15T08:48:45.725Z,32.73
2019-02-15T08:51:08.689Z,39.43
2019-02-15T08:53:38.443Z,43.60
2019-02-15T08:56:08.151Z,42.97
2019-02-15T08:58:38.048Z,41.03
2019-02-15T09:01:07.942Z,39.57
2019-02-15T09:03:37.576Z,38.27
2019-02-15T09:06:07.201Z,35.00
2019-02-15T09:08:36.847Z,38.17
2019-02-15T09:11:06.421Z,41.17
2019-02-15T09:13:36.228Z,37.03
2019-02-15T09:16:10.399Z,37.23
2019-02-15T09:18:37.366Z,38.27
2019-02-15T09:21:07.031Z,43.27
2019-02-15T09:23:36.738Z,38.20
2019-02-15T09:26:06.484Z,39.53
2019-02-15T09:28:40.335Z,36.93
2019-02-15T09:31:09.929Z,36.47
2019-02-15T09:33:39.668Z,35.77
2019-02-15T09:36:09.628Z,36.87
2019-02-15T09:38:39.262Z,34.47
2019-02-15T09:41:08.894Z,36.43
2019-02-15T09:43:38.712Z,34.60
2019-02-15T09:46:08.476Z,30.30
2019-02-15T09:48:38.372Z,34.60
2019-02-15T09:51:08.193Z,34.87
2019-02-15T09:53:37.739Z,30.07
2019-02-15T09:56:07.462Z,28.90
2019-02-15T09:58:37.299Z,30.93
2019-02-15T10:01:06.996Z,29.17
2019-02-15T10:03:36.717Z,25.23
2019-02-15T10:06:06.408Z,29.43
2019-02-15T10:08:36.281Z,26.83
2019-02-15T10:11:05.981Z,31.23
2019-02-15T10:13:35.820Z,24.87
2019-02-15T10:16:05.688Z,28.73
2019-02-15T10:18:35.359Z,29.23
2019-02-15T10:21:05.002Z,28.80
2019-02-15T10:23:34.946Z,26.07
2019-02-15T10:26:04.893Z,28.13
2019-02-15T10:28:34.494Z,25.80
2019-02-15T10:31:04.512Z,31.80
2019-02-15T10:33:34.405Z,35.60
2019-02-15T10:36:04.107Z,28.27
2019-02-15T10:38:33.927Z,34.20
2019-02-15T10:41:03.696Z,30.67
2019-02-15T10:43:33.558Z,32.13
2019-02-15T10:46:03.462Z,38.43
2019-02-15T10:48:33.388Z,31.73
2019-02-15T10:51:03.603Z,39.00
2019-02-15T10:53:33.361Z,34.47
2019-02-15T10:56:03.097Z,40.97
2019-02-15T10:58:32.868Z,41.90
2019-02-15T11:01:02.734Z,38.47
2019-02-15T11:03:32.576Z,30.80
2019-02-15T11:06:02.385Z,34.33
2019-02-15T11:08:32.127Z,36.20
2019-02-15T11:11:01.865Z,35.80
2019-02-15T11:13:31.559Z,37.87
2019-02-15T11:16:01.237Z,36.87
2019-02-15T11:18:31.032Z,35.67
2019-02-15T11:21:00.866Z,35.93
2019-02-15T11:23:30.453Z,33.03
2019-02-15T11:26:00.372Z,31.47
2019-02-15T11:28:30.200Z,27.27
2019-02-15T11:30:59.909Z,29.43
2019-02-15T11:33:29.874Z,30.07
2019-02-15T11:35:59.782Z,28.37
2019-02-15T11:38:29.524Z,30.03
2019-02-15T11:40:59.225Z,26.87
2019-02-15T11:43:29.058Z,31.57
2019-02-15T11:45:58.634Z,26.30
2019-02-15T11:48:29.503Z,32.33
2019-02-15T11:50:59.570Z,34.87
2019-02-15T11:53:29.365Z,26.73
2019-02-15T11:55:58.905Z,32.57
2019-02-15T11:58:28.891Z,29.80
2019-02-15T12:00:58.700Z,32.03
2019-02-15T12:03:28.388Z,31.67
2019-02-15T12:05:58.076Z,29.97
2019-02-15T12:08:28.002Z,31.37
2019-02-15T12:10:57.629Z,33.43
2019-02-15T12:13:27.482Z,33.77
2019-02-15T12:15:57.169Z,29.67
2019-02-15T12:18:26.758Z,32.80
2019-02-15T12:20:56.750Z,33.77
2019-02-15T12:23:28.436Z,33.20
2019-02-15T12:25:58.512Z,34.13
2019-02-15T12:28:28.295Z,29.73
2019-02-15T12:30:58.029Z,32.80
2019-02-15T12:33:27.800Z,27.30
2019-02-15T12:35:57.427Z,25.33
2019-02-15T12:38:27.277Z,32.63
2019-02-15T12:40:57.062Z,32.63
2019-02-15T12:43:26.759Z,31.37
2019-02-15T12:45:56.549Z,29.03
2019-02-15T12:48:26.567Z,29.47
2019-02-15T12:50:56.574Z,28.17
2019-02-15T12:53:26.613Z,31.73
2019-02-15T12:55:56.453Z,31.10
2019-02-15T12:58:26.312Z,30.33
2019-02-15T13:00:56.268Z,30.50
2019-02-15T13:03:26.406Z,37.80
2019-02-15T13:05:56.226Z,32.63
2019-02-15T13:08:26.060Z,32.93
2019-02-15T13:10:56.468Z,32.10
2019-02-15T13:13:26.950Z,34.37
2019-02-15T13:15:56.515Z,35.40
2019-02-15T13:18:26.684Z,33.20
2019-02-15T13:20:56.728Z,30.73
2019-02-15T13:23:26.514Z,36.77
2019-02-15T13:25:56.706Z,35.93
2019-02-15T13:28:26.618Z,34.80
2019-02-15T13:30:56.397Z,33.30
2019-02-15T13:33:26.581Z,36.23
2019-02-15T13:35:56.378Z,34.97
2019-02-15T13:38:26.222Z,36.43
2019-02-15T13:40:56.290Z,33.80
2019-02-15T13:43:26.234Z,32.83
2019-02-15T13:45:56.059Z,46.03
2019-02-15T13:48:26.288Z,32.90
2019-02-15T13:50:56.485Z,30.77
2019-02-15T13:53:26.383Z,36.97
2019-02-15T13:55:56.417Z,32.73
2019-02-15T13:58:26.566Z,34.83
2019-02-15T14:00:56.294Z,32.07
2019-02-15T14:03:26.378Z,33.37
2019-02-15T14:05:56.514Z,37.23
2019-02-15T14:08:26.452Z,31.30
2019-02-15T14:10:56.282Z,27.83
2019-02-15T14:13:26.310Z,33.90
2019-02-15T14:15:56.241Z,32.93
2019-02-15T14:18:26.209Z,32.77
2019-02-15T14:20:56.030Z,28.73
2019-02-15T14:23:25.804Z,30.60
2019-02-15T14:25:55.928Z,36.47
2019-02-15T14:28:25.563Z,33.30
2019-02-15T14:30:55.483Z,27.43
2019-02-15T14:33:25.612Z,29.37
2019-02-15T14:35:55.610Z,29.17
2019-02-15T14:38:28.256Z,30.97
2019-02-15T14:40:57.920Z,27.90
2019-02-15T14:43:27.602Z,30.60
2019-02-15T14:45:57.468Z,24.83
2019-02-15T14:48:27.137Z,28.53
2019-02-15T14:50:56.907Z,26.77
2019-02-15T14:53:26.782Z,29.33
2019-02-15T14:55:56.483Z,28.00
2019-02-15T14:58:26.423Z,24.87
2019-02-15T15:00:56.776Z,26.57
2019-02-15T15:03:26.589Z,23.90
2019-02-15T15:05:57.259Z,24.73
2019-02-15T15:08:26.998Z,24.83
2019-02-15T15:10:56.950Z,25.60
2019-02-15T15:13:27.040Z,27.53
2019-02-15T15:15:56.814Z,24.43
2019-02-15T15:18:26.448Z,26.77
2019-02-15T15:20:56.351Z,24.00
2019-02-15T15:23:26.279Z,30.30
2019-02-15T15:25:58.723Z,24.50
2019-02-15T15:28:31.314Z,23.47
2019-02-15T15:31:07.585Z,27.27
2019-02-15T15:33:37.552Z,25.70
2019-02-15T15:36:08.137Z,20.33
2019-02-15T15:38:38.242Z,21.33
2019-02-15T15:41:08.411Z,22.30
2019-02-15T15:43:38.760Z,20.53
2019-02-15T15:46:08.652Z,21.07
2019-02-15T15:48:40.432Z,21.90
2019-02-15T15:51:10.302Z,19.23
2019-02-15T15:53:39.986Z,25.37
2019-02-15T15:56:10.092Z,25.70
2019-02-15T15:58:40.026Z,24.13
2019-02-15T16:01:10.066Z,21.53
2019-02-15T16:03:40.323Z,21.57
2019-02-15T16:06:10.263Z,22.30
2019-02-15T16:08:40.085Z,21.10
2019-02-15T16:11:12.547Z,19.93
2019-02-15T16:13:42.361Z,18.17
2019-02-15T16:16:12.172Z,17.60
2019-02-15T16:18:42.099Z,18.07
2019-02-15T16:21:11.830Z,18.40
2019-02-15T16:23:51.308Z,21.00
2019-02-15T16:26:21.265Z,17.37
2019-02-15T16:28:56.291Z,23.87
2019-02-15T16:31:33.012Z,18.60
2019-02-15T16:34:03.363Z,19.40
2019-02-15T16:36:33.109Z,19.20
2019-02-15T16:39:03.518Z,19.77
2019-02-15T16:41:33.345Z,18.17
2019-02-15T16:44:03.249Z,36.17
2019-02-15T16:46:33.206Z,19.53
2019-02-15T16:49:03.326Z,23.00
2019-02-15T16:51:32.998Z,18.97
2019-02-15T16:54:02.666Z,21.10
2019-02-15T16:56:32.901Z,21.53
2019-02-15T16:59:02.906Z,22.37
2019-02-15T17:01:32.791Z,18.40
2019-02-15T17:04:02.942Z,19.97
2019-02-15T17:06:33.420Z,18.30
2019-02-15T17:09:04.811Z,21.23
2019-02-15T17:11:34.797Z,20.70
2019-02-15T17:14:04.763Z,21.10
2019-02-15T17:16:34.968Z,22.07
2019-02-15T17:19:04.887Z,22.13
2019-02-15T17:21:34.580Z,24.67
2019-02-15T17:24:04.535Z,21.57
2019-02-15T17:26:34.161Z,21.17
2019-02-15T17:29:07.174Z,27.63
2019-02-15T17:31:36.839Z,22.73
2019-02-15T17:34:06.564Z,23.00
2019-02-15T17:36:36.526Z,25.70
2019-02-15T17:39:07.534Z,21.30
2019-02-15T17:41:37.530Z,30.03
2019-02-15T17:44:07.411Z,22.50
2019-02-15T17:46:37.159Z,23.70
2019-02-15T17:49:07.092Z,26.03
2019-02-15T17:51:36.920Z,28.17
2019-02-15T17:54:09.273Z,27.57
2019-02-15T17:56:39.215Z,30.83
2019-02-15T17:59:09.064Z,36.17
2019-02-15T18:01:38.709Z,27.60
2019-02-15T18:04:08.802Z,31.90
2019-02-15T18:06:38.506Z,39.00
2019-02-15T18:09:08.396Z,36.43
2019-02-15T18:11:38.223Z,37.53
2019-02-15T18:14:08.375Z,39.03
2019-02-15T18:16:38.249Z,34.53
2019-02-15T18:19:10.109Z,34.30
2019-02-15T18:21:39.225Z,36.57
2019-02-15T18:24:08.864Z,35.43
2019-02-15T18:26:38.618Z,34.07
2019-02-15T18:29:08.318Z,33.63
2019-02-15T18:31:38.403Z,35.93
2019-02-15T18:34:08.267Z,35.93
2019-02-15T18:36:37.961Z,34.27
2019-02-15T18:39:08.809Z,38.50
2019-02-15T18:41:38.471Z,44.60
2019-02-15T18:44:08.177Z,37.87
2019-02-15T18:46:37.699Z,38.23
2019-02-15T18:49:07.302Z,52.13
2019-02-15T18:51:37.833Z,40.50
2019-02-15T18:54:07.654Z,53.50
2019-02-15T18:56:37.635Z,41.17
2019-02-15T18:59:07.573Z,42.23
2019-02-15T19:01:37.200Z,38.43
2019-02-15T19:04:06.826Z,49.77
2019-02-15T19:06:36.566Z,42.60
2019-02-15T19:09:07.988Z,46.17
2019-02-15T19:11:37.968Z,37.13
2019-02-15T19:14:07.933Z,46.20
2019-02-15T19:16:37.625Z,42.00
2019-02-15T19:19:07.535Z,47.53
2019-02-15T19:21:37.258Z,42.20
2019-02-15T19:24:07.128Z,39.13
2019-02-15T19:26:36.801Z,38.77
2019-02-15T19:29:06.514Z,44.70
2019-02-15T19:31:36.217Z,44.83
2019-02-15T19:34:06.052Z,45.40
2019-02-15T19:36:35.775Z,42.77
2019-02-15T19:39:07.347Z,43.33
2019-02-15T19:41:37.050Z,44.53
2019-02-15T19:44:06.760Z,48.93
2019-02-15T19:46:36.497Z,44.83
2019-02-15T19:49:06.237Z,44.70
2019-02-15T19:51:36.050Z,47.03
2019-02-15T19:54:05.942Z,48.30
2019-02-15T19:56:35.769Z,44.53
2019-02-15T19:59:05.463Z,43.80
2019-02-15T20:01:35.301Z,51.83
2019-02-15T20:04:04.942Z,50.37
2019-02-15T20:06:35.058Z,48.83
2019-02-15T20:09:05.846Z,51.83
2019-02-15T20:11:35.539Z,48.80
2019-02-15T20:14:05.277Z,54.00
2019-02-15T20:16:35.339Z,50.10
2019-02-15T20:19:04.998Z,51.97
2019-02-15T20:21:34.653Z,50.20
2019-02-15T20:24:04.773Z,52.50
2019-02-15T20:26:34.603Z,46.03
2019-02-15T20:29:04.430Z,44.47
2019-02-15T20:31:34.067Z,48.77
2019-02-15T20:34:03.703Z,49.17
2019-02-15T20:36:33.611Z,46.17
2019-02-15T20:39:04.053Z,48.80
2019-02-15T20:41:33.685Z,56.10
2019-02-15T20:44:03.330Z,50.33
2019-02-15T20:46:33.339Z,47.93
2019-02-15T20:49:04.870Z,49.00
2019-02-15T20:51:34.485Z,49.83
2019-02-15T20:54:04.166Z,45.63
2019-02-15T20:56:33.964Z,39.90
2019-02-15T20:59:03.910Z,38.37
2019-02-15T21:01:33.738Z,44.23
2019-02-15T21:04:03.972Z,39.17
2019-02-15T21:06:33.808Z,39.93
2019-02-15T21:09:04.626Z,38.70
2019-02-15T21:11:34.585Z,36.90
2019-02-15T21:14:04.405Z,37.97
2019-02-15T21:16:34.384Z,37.43
2019-02-15T21:19:04.041Z,35.30
2019-02-15T21:21:33.916Z,31.70
2019-02-15T21:24:04.040Z,37.90
2019-02-15T21:26:35.909Z,37.13
2019-02-15T21:29:05.764Z,36.47
2019-02-15T21:31:35.555Z,29.77
2019-02-15T21:34:05.698Z,33.50
2019-02-15T21:36:35.598Z,31.90
2019-02-15T21:39:07.396Z,28.03
2019-02-15T21:41:37.185Z,30.77
2019-02-15T21:44:07.204Z,28.57
2019-02-15T21:46:37.197Z,29.13
2019-02-15T21:49:06.842Z,28.87
2019-02-15T21:51:36.703Z,37.27
2019-02-15T21:54:06.625Z,25.53
2019-02-15T21:56:36.394Z,25.20
2019-02-15T21:59:06.119Z,27.30
2019-02-15T22:01:36.314Z,28.70
2019-02-15T22:04:05.964Z,25.23
2019-02-15T22:06:35.846Z,29.70
2019-02-15T22:09:07.069Z,27.30
2019-02-15T22:11:37.294Z,26.60
2019-02-15T22:14:07.226Z,26.63
2019-02-15T22:16:37.359Z,25.30
2019-02-15T22:19:07.563Z,28.03
2019-02-15T22:21:37.545Z,26.50
2019-02-15T22:24:07.470Z,26.47
2019-02-15T22:26:37.264Z,26.60
2019-02-15T22:29:07.008Z,24.73
2019-02-15T22:31:37.309Z,23.53
2019-02-15T22:34:07.097Z,24.60
2019-02-15T22:36:37.017Z,25.30
2019-02-15T22:39:07.723Z,22.13
2019-02-15T22:41:38.044Z,28.60
2019-02-15T22:44:13.995Z,24.00
2019-02-15T22:46:44.469Z,21.03
2019-02-15T22:49:14.212Z,20.97
2019-02-15T22:51:44.302Z,22.40
2019-02-15T22:54:14.093Z,23.60
2019-02-15T22:56:43.853Z,25.83
2019-02-15T22:59:14.127Z,24.73
2019-02-15T23:01:44.670Z,23.07
2019-02-15T23:04:14.835Z,21.57
2019-02-15T23:06:45.186Z,22.60
2019-02-15T23:09:25.534Z,21.07
2019-02-15T23:11:55.876Z,22.43
2019-02-15T23:14:25.571Z,21.47
2019-02-15T23:16:55.556Z,23.73
2019-02-15T23:19:25.646Z,24.77
2019-02-15T23:21:55.437Z,26.23
2019-02-15T23:24:25.512Z,24.57
2019-02-15T23:26:55.525Z,23.53
2019-02-15T23:29:25.410Z,24.13
2019-02-15T23:31:55.955Z,26.93
2019-02-15T23:34:25.568Z,26.47
2019-02-15T23:36:55.539Z,22.63
2019-02-15T23:39:25.534Z,22.70
2019-02-15T23:41:55.580Z,24.47
2019-02-15T23:44:25.694Z,26.30
2019-02-15T23:46:57.988Z,24.90
2019-02-15T23:49:27.807Z,22.60
2019-02-15T23:51:57.891Z,25.60
2019-02-15T23:54:27.624Z,26.40
2019-02-15T23:56:58.738Z,26.07
2019-02-15T23:59:28.726Z,24.67
